sensor_id;sensor_type;location;lat;lon;timestamp;P1;durP1;ratioP1;P2;durP2;ratioP2
77038;SDS011;65970;50.476;4.840;2022-12-18T00:04:28;18.20;;;8.52;;
77038;SDS011;65970;50.476;4.840;2022-12-18T00:09:29;14.13;;;7.60;;
77038;SDS011;65970;50.476;4.840;2022-12-18T00:14:30;13.07;;;6.90;;
77038;SDS011;65970;50.476;4.840;2022-12-18T00:19:30;15.43;;;7.28;;
77038;SDS011;65970;50.476;4.840;2022-12-18T00:24:31;15.13;;;6.57;;
77038;SDS011;65970;50.476;4.840;2022-12-18T00:29:31;13.70;;;6.57;;
77038;SDS011;65970;50.476;4.840;2022-12-18T00:34:32;11.82;;;7.13;;
77038;SDS011;65970;50.476;4.840;2022-12-18T00:39:33;17.33;;;7.13;;
77038;SDS011;65970;50.476;4.840;2022-12-18T00:44:33;11.85;;;6.22;;
77038;SDS011;65970;50.476;4.840;2022-12-18T00:49:34;15.23;;;8.23;;
77038;SDS011;65970;50.476;4.840;2022-12-18T00:54:34;14.15;;;7.03;;
77038;SDS011;65970;50.476;4.840;2022-12-18T00:59:35;10.30;;;6.75;;
77038;SDS011;65970;50.476;4.840;2022-12-18T01:04:35;10.63;;;6.22;;
77038;SDS011;65970;50.476;4.840;2022-12-18T01:09:36;10.27;;;7.20;;
77038;SDS011;65970;50.476;4.840;2022-12-18T01:14:36;15.60;;;6.80;;
77038;SDS011;65970;50.476;4.840;2022-12-18T01:19:37;14.43;;;6.82;;
77038;SDS011;65970;50.476;4.840;2022-12-18T01:24:37;11.65;;;6.63;;
77038;SDS011;65970;50.476;4.840;2022-12-18T01:29:38;15.95;;;7.25;;
77038;SDS011;65970;50.476;4.840;2022-12-18T01:34:39;12.48;;;6.35;;
77038;SDS011;65970;50.476;4.840;2022-12-18T01:39:39;12.18;;;6.60;;
77038;SDS011;65970;50.476;4.840;2022-12-18T01:50:13;9.53;;;5.20;;
77038;SDS011;65970;50.476;4.840;2022-12-18T01:55:20;9.45;;;5.95;;
77038;SDS011;65970;50.476;4.840;2022-12-18T02:00:24;9.50;;;6.23;;
77038;SDS011;65970;50.476;4.840;2022-12-18T02:05:29;9.87;;;5.50;;
77038;SDS011;65970;50.476;4.840;2022-12-18T02:10:37;10.17;;;5.27;;
77038;SDS011;65970;50.476;4.840;2022-12-18T02:15:44;8.00;;;5.43;;
77038;SDS011;65970;50.476;4.840;2022-12-18T02:20:49;11.80;;;6.90;;
77038;SDS011;65970;50.476;4.840;2022-12-18T02:31:27;10.03;;;5.07;;
77038;SDS011;65970;50.476;4.840;2022-12-18T02:36:30;8.87;;;5.27;;
77038;SDS011;65970;50.476;4.840;2022-12-18T02:41:33;11.57;;;6.03;;
77038;SDS011;65970;50.476;4.840;2022-12-18T02:46:38;8.00;;;4.82;;
77038;SDS011;65970;50.476;4.840;2022-12-18T02:51:45;11.47;;;4.57;;
77038;SDS011;65970;50.476;4.840;2022-12-18T02:56:54;8.63;;;4.73;;
77038;SDS011;65970;50.476;4.840;2022-12-18T03:01:58;9.03;;;5.37;;
77038;SDS011;65970;50.476;4.840;2022-12-18T03:07:06;10.33;;;4.67;;
77038;SDS011;65970;50.476;4.840;2022-12-18T03:12:15;14.20;;;5.30;;
77038;SDS011;65970;50.476;4.840;2022-12-18T03:17:17;8.73;;;4.03;;
77038;SDS011;65970;50.476;4.840;2022-12-18T03:27:22;8.87;;;5.70;;
77038;SDS011;65970;50.476;4.840;2022-12-18T03:32:26;10.83;;;5.70;;
77038;SDS011;65970;50.476;4.840;2022-12-18T03:37:30;10.40;;;5.40;;
77038;SDS011;65970;50.476;4.840;2022-12-18T03:42:52;8.40;;;4.33;;
77038;SDS011;65970;50.476;4.840;2022-12-18T03:48:13;13.07;;;6.30;;
77038;SDS011;65970;50.476;4.840;2022-12-18T03:53:23;8.90;;;5.23;;
77038;SDS011;65970;50.476;4.840;2022-12-18T03:58:36;8.40;;;6.37;;
77038;SDS011;65970;50.476;4.840;2022-12-18T04:03:38;7.45;;;4.47;;
77038;SDS011;65970;50.476;4.840;2022-12-18T04:08:39;9.77;;;4.40;;
77038;SDS011;65970;50.476;4.840;2022-12-18T04:13:41;5.90;;;4.47;;
77038;SDS011;65970;50.476;4.840;2022-12-18T04:18:42;4.70;;;3.43;;
77038;SDS011;65970;50.476;4.840;2022-12-18T04:23:43;8.10;;;4.07;;
77038;SDS011;65970;50.476;4.840;2022-12-18T04:28:43;6.90;;;3.97;;
77038;SDS011;65970;50.476;4.840;2022-12-18T04:33:44;6.23;;;4.13;;
77038;SDS011;65970;50.476;4.840;2022-12-18T04:38:44;4.63;;;3.33;;
77038;SDS011;65970;50.476;4.840;2022-12-18T04:43:45;6.43;;;2.47;;
77038;SDS011;65970;50.476;4.840;2022-12-18T04:48:46;5.10;;;2.57;;
77038;SDS011;65970;50.476;4.840;2022-12-18T04:53:46;4.50;;;3.40;;
77038;SDS011;65970;50.476;4.840;2022-12-18T04:58:47;5.33;;;3.07;;
77038;SDS011;65970;50.476;4.840;2022-12-18T05:03:47;8.33;;;4.57;;
77038;SDS011;65970;50.476;4.840;2022-12-18T05:08:48;5.93;;;3.13;;
77038;SDS011;65970;50.476;4.840;2022-12-18T05:13:49;4.77;;;2.83;;
77038;SDS011;65970;50.476;4.840;2022-12-18T05:18:49;7.37;;;2.97;;
77038;SDS011;65970;50.476;4.840;2022-12-18T05:23:50;3.83;;;3.00;;
77038;SDS011;65970;50.476;4.840;2022-12-18T05:28:50;5.87;;;2.90;;
77038;SDS011;65970;50.476;4.840;2022-12-18T05:33:51;4.83;;;3.10;;
77038;SDS011;65970;50.476;4.840;2022-12-18T05:38:51;5.17;;;3.03;;
77038;SDS011;65970;50.476;4.840;2022-12-18T05:43:52;5.37;;;3.40;;
77038;SDS011;65970;50.476;4.840;2022-12-18T05:48:52;9.77;;;5.20;;
77038;SDS011;65970;50.476;4.840;2022-12-18T05:53:53;5.60;;;3.20;;
77038;SDS011;65970;50.476;4.840;2022-12-18T05:58:54;4.07;;;2.67;;
77038;SDS011;65970;50.476;4.840;2022-12-18T06:03:55;4.93;;;3.00;;
77038;SDS011;65970;50.476;4.840;2022-12-18T06:08:55;4.67;;;2.83;;
77038;SDS011;65970;50.476;4.840;2022-12-18T06:13:56;4.57;;;3.07;;
77038;SDS011;65970;50.476;4.840;2022-12-18T06:19:00;2.57;;;1.50;;
77038;SDS011;65970;50.476;4.840;2022-12-18T06:24:03;3.13;;;1.70;;
77038;SDS011;65970;50.476;4.840;2022-12-18T06:29:04;3.33;;;2.23;;
77038;SDS011;65970;50.476;4.840;2022-12-18T06:34:05;2.77;;;1.97;;
77038;SDS011;65970;50.476;4.840;2022-12-18T06:39:05;5.53;;;2.67;;
77038;SDS011;65970;50.476;4.840;2022-12-18T06:44:06;4.50;;;2.87;;
77038;SDS011;65970;50.476;4.840;2022-12-18T06:49:06;2.77;;;2.10;;
77038;SDS011;65970;50.476;4.840;2022-12-18T06:54:07;4.80;;;3.20;;
77038;SDS011;65970;50.476;4.840;2022-12-18T06:59:08;3.77;;;2.60;;
77038;SDS011;65970;50.476;4.840;2022-12-18T07:04:08;3.67;;;2.80;;
77038;SDS011;65970;50.476;4.840;2022-12-18T07:09:09;6.33;;;2.77;;
77038;SDS011;65970;50.476;4.840;2022-12-18T07:14:10;5.17;;;3.43;;
77038;SDS011;65970;50.476;4.840;2022-12-18T07:19:10;3.80;;;2.67;;
77038;SDS011;65970;50.476;4.840;2022-12-18T07:24:11;2.87;;;2.20;;
77038;SDS011;65970;50.476;4.840;2022-12-18T07:29:11;4.83;;;2.47;;
77038;SDS011;65970;50.476;4.840;2022-12-18T07:34:12;4.80;;;2.83;;
77038;SDS011;65970;50.476;4.840;2022-12-18T07:39:13;5.13;;;2.67;;
77038;SDS011;65970;50.476;4.840;2022-12-18T07:44:14;5.77;;;3.50;;
77038;SDS011;65970;50.476;4.840;2022-12-18T07:49:15;4.03;;;2.40;;
77038;SDS011;65970;50.476;4.840;2022-12-18T07:54:15;3.23;;;2.40;;
77038;SDS011;65970;50.476;4.840;2022-12-18T07:59:16;5.97;;;2.23;;
77038;SDS011;65970;50.476;4.840;2022-12-18T08:04:16;7.10;;;4.37;;
77038;SDS011;65970;50.476;4.840;2022-12-18T08:09:17;8.10;;;4.10;;
77038;SDS011;65970;50.476;4.840;2022-12-18T08:14:17;9.80;;;4.80;;
77038;SDS011;65970;50.476;4.840;2022-12-18T08:19:18;5.17;;;3.70;;
77038;SDS011;65970;50.476;4.840;2022-12-18T08:24:18;6.17;;;3.53;;
77038;SDS011;65970;50.476;4.840;2022-12-18T08:29:19;15.90;;;5.00;;
77038;SDS011;65970;50.476;4.840;2022-12-18T08:34:20;5.80;;;3.00;;
77038;SDS011;65970;50.476;4.840;2022-12-18T08:39:27;3.30;;;2.43;;
77038;SDS011;65970;50.476;4.840;2022-12-18T08:44:33;2.47;;;1.88;;
77038;SDS011;65970;50.476;4.840;2022-12-18T08:49:34;7.50;;;3.13;;
77038;SDS011;65970;50.476;4.840;2022-12-18T08:54:35;10.43;;;7.13;;
77038;SDS011;65970;50.476;4.840;2022-12-18T08:59:35;5.18;;;3.58;;
77038;SDS011;65970;50.476;4.840;2022-12-18T09:04:36;7.55;;;2.95;;
77038;SDS011;65970;50.476;4.840;2022-12-18T09:09:38;6.23;;;3.63;;
77038;SDS011;65970;50.476;4.840;2022-12-18T09:14:38;5.73;;;3.43;;
77038;SDS011;65970;50.476;4.840;2022-12-18T09:19:39;7.07;;;3.63;;
77038;SDS011;65970;50.476;4.840;2022-12-18T09:24:39;7.55;;;3.40;;
77038;SDS011;65970;50.476;4.840;2022-12-18T09:29:40;6.57;;;3.57;;
77038;SDS011;65970;50.476;4.840;2022-12-18T09:34:40;4.63;;;3.50;;
77038;SDS011;65970;50.476;4.840;2022-12-18T09:39:41;8.02;;;3.95;;
77038;SDS011;65970;50.476;4.840;2022-12-18T09:44:43;6.03;;;3.35;;
77038;SDS011;65970;50.476;4.840;2022-12-18T09:49:49;5.22;;;3.70;;
77038;SDS011;65970;50.476;4.840;2022-12-18T09:54:59;6.03;;;3.53;;
77038;SDS011;65970;50.476;4.840;2022-12-18T10:00:16;6.65;;;4.18;;
77038;SDS011;65970;50.476;4.840;2022-12-18T10:05:29;4.75;;;3.00;;
77038;SDS011;65970;50.476;4.840;2022-12-18T10:10:42;7.57;;;4.72;;
77038;SDS011;65970;50.476;4.840;2022-12-18T10:21:11;6.78;;;4.70;;
77038;SDS011;65970;50.476;4.840;2022-12-18T10:26:16;6.60;;;4.07;;
77038;SDS011;65970;50.476;4.840;2022-12-18T10:31:18;3.92;;;3.45;;
77038;SDS011;65970;50.476;4.840;2022-12-18T10:36:22;6.30;;;3.85;;
77038;SDS011;65970;50.476;4.840;2022-12-18T10:41:26;5.03;;;2.97;;
77038;SDS011;65970;50.476;4.840;2022-12-18T10:46:27;6.05;;;3.88;;
77038;SDS011;65970;50.476;4.840;2022-12-18T10:51:31;4.55;;;3.95;;
77038;SDS011;65970;50.476;4.840;2022-12-18T10:56:34;7.55;;;3.50;;
77038;SDS011;65970;50.476;4.840;2022-12-18T11:06:56;9.85;;;3.97;;
77038;SDS011;65970;50.476;4.840;2022-12-18T11:12:03;73.55;;;23.27;;
77038;SDS011;65970;50.476;4.840;2022-12-18T11:17:20;33.35;;;14.95;;
77038;SDS011;65970;50.476;4.840;2022-12-18T11:27:29;4.70;;;4.07;;
77038;SDS011;65970;50.476;4.840;2022-12-18T11:32:39;6.38;;;4.28;;
77038;SDS011;65970;50.476;4.840;2022-12-18T11:37:43;8.60;;;4.25;;
77038;SDS011;65970;50.476;4.840;2022-12-18T11:48:01;8.80;;;4.38;;
77038;SDS011;65970;50.476;4.840;2022-12-18T11:53:10;7.47;;;4.47;;
77038;SDS011;65970;50.476;4.840;2022-12-18T12:19:02;11.20;;;4.55;;
77038;SDS011;65970;50.476;4.840;2022-12-18T12:24:31;12.05;;;6.35;;
77038;SDS011;65970;50.476;4.840;2022-12-18T12:29:41;8.93;;;4.88;;
77038;SDS011;65970;50.476;4.840;2022-12-18T12:40:26;9.50;;;4.55;;
77038;SDS011;65970;50.476;4.840;2022-12-18T12:45:32;6.00;;;3.70;;
77038;SDS011;65970;50.476;4.840;2022-12-18T12:50:40;9.05;;;6.05;;
77038;SDS011;65970;50.476;4.840;2022-12-18T12:55:41;11.98;;;5.35;;
77038;SDS011;65970;50.476;4.840;2022-12-18T13:00:51;10.60;;;6.10;;
77038;SDS011;65970;50.476;4.840;2022-12-18T13:05:54;13.25;;;6.90;;
77038;SDS011;65970;50.476;4.840;2022-12-18T13:52:24;15.05;;;6.25;;
77038;SDS011;65970;50.476;4.840;2022-12-18T13:57:33;16.55;;;7.63;;
77038;SDS011;65970;50.476;4.840;2022-12-18T14:07:46;11.23;;;6.65;;
77038;SDS011;65970;50.476;4.840;2022-12-18T14:13:11;15.45;;;7.40;;
77038;SDS011;65970;50.476;4.840;2022-12-18T14:23:44;11.93;;;6.95;;
77038;SDS011;65970;50.476;4.840;2022-12-18T14:28:45;16.45;;;7.50;;
77038;SDS011;65970;50.476;4.840;2022-12-18T15:05:36;9.25;;;6.38;;
77038;SDS011;65970;50.476;4.840;2022-12-18T15:16:04;12.35;;;7.43;;
77038;SDS011;65970;50.476;4.840;2022-12-18T15:26:36;14.50;;;7.18;;
77038;SDS011;65970;50.476;4.840;2022-12-18T15:58:10;14.27;;;7.28;;
77038;SDS011;65970;50.476;4.840;2022-12-18T16:03:34;15.23;;;6.40;;
77038;SDS011;65970;50.476;4.840;2022-12-18T16:08:38;15.35;;;7.50;;
77038;SDS011;65970;50.476;4.840;2022-12-18T16:13:40;14.10;;;7.82;;
77038;SDS011;65970;50.476;4.840;2022-12-18T16:18:41;11.98;;;6.18;;
77038;SDS011;65970;50.476;4.840;2022-12-18T16:23:43;12.23;;;7.13;;
77038;SDS011;65970;50.476;4.840;2022-12-18T16:28:45;14.38;;;6.75;;
77038;SDS011;65970;50.476;4.840;2022-12-18T16:34:27;14.32;;;7.40;;
77038;SDS011;65970;50.476;4.840;2022-12-18T16:39:36;15.60;;;7.18;;
77038;SDS011;65970;50.476;4.840;2022-12-18T16:44:39;11.32;;;6.63;;
77038;SDS011;65970;50.476;4.840;2022-12-18T16:54:42;13.87;;;6.83;;
77038;SDS011;65970;50.476;4.840;2022-12-18T16:59:46;15.23;;;7.25;;
77038;SDS011;65970;50.476;4.840;2022-12-18T17:04:52;14.02;;;6.97;;
77038;SDS011;65970;50.476;4.840;2022-12-18T17:09:55;14.55;;;7.10;;
77038;SDS011;65970;50.476;4.840;2022-12-18T17:14:58;19.83;;;9.07;;
77038;SDS011;65970;50.476;4.840;2022-12-18T17:19:59;17.17;;;8.82;;
77038;SDS011;65970;50.476;4.840;2022-12-18T17:25:00;17.10;;;7.90;;
77038;SDS011;65970;50.476;4.840;2022-12-18T17:30:02;15.70;;;8.00;;
77038;SDS011;65970;50.476;4.840;2022-12-18T17:35:04;12.80;;;7.28;;
77038;SDS011;65970;50.476;4.840;2022-12-18T17:40:06;15.25;;;7.72;;
77038;SDS011;65970;50.476;4.840;2022-12-18T17:45:08;11.17;;;5.20;;
77038;SDS011;65970;50.476;4.840;2022-12-18T17:50:09;13.63;;;6.65;;
77038;SDS011;65970;50.476;4.840;2022-12-18T17:55:15;14.60;;;7.65;;
77038;SDS011;65970;50.476;4.840;2022-12-18T18:00:20;18.08;;;7.72;;
77038;SDS011;65970;50.476;4.840;2022-12-18T18:05:53;13.33;;;6.50;;
77038;SDS011;65970;50.476;4.840;2022-12-18T18:11:05;16.58;;;7.90;;
77038;SDS011;65970;50.476;4.840;2022-12-18T18:27:20;10.32;;;6.28;;
77038;SDS011;65970;50.476;4.840;2022-12-18T18:42:48;15.63;;;8.25;;
